createdAt,value
2018-07-24T00:01:37.524Z,8.47
2018-07-24T00:04:08.220Z,7.73
2018-07-24T00:06:38.958Z,7.13
2018-07-24T00:09:10.463Z,7.37
2018-07-24T00:11:41.245Z,7.43
2018-07-24T00:14:12.069Z,7.40
2018-07-24T00:16:42.828Z,7.60
2018-07-24T00:19:13.582Z,7.87
2018-07-24T00:21:44.384Z,7.67
2018-07-24T00:24:15.117Z,7.37
2018-07-24T00:26:45.935Z,7.70
2018-07-24T00:29:16.659Z,7.83
2018-07-24T00:31:47.519Z,7.97
2018-07-24T00:34:18.285Z,7.50
2018-07-24T00:36:49.035Z,8.00
2018-07-24T00:39:19.829Z,7.90
2018-07-24T00:41:50.603Z,7.23
2018-07-24T00:44:21.355Z,8.47
2018-07-24T00:46:52.125Z,8.60
2018-07-24T00:49:22.896Z,8.30
2018-07-24T00:51:53.689Z,8.30
2018-07-24T00:54:24.410Z,8.20
2018-07-24T00:56:55.161Z,8.40
2018-07-24T00:59:25.890Z,8.17
2018-07-24T01:01:56.569Z,7.63
2018-07-24T01:04:27.344Z,8.03
2018-07-24T01:06:58.139Z,8.10
2018-07-24T01:09:28.830Z,7.70
2018-07-24T01:11:59.599Z,7.77
2018-07-24T01:14:30.371Z,7.73
2018-07-24T01:17:01.147Z,7.90
2018-07-24T01:19:31.875Z,7.20
2018-07-24T01:22:02.690Z,8.00
2018-07-24T01:24:33.403Z,8.10
2018-07-24T01:27:04.225Z,8.53
2018-07-24T01:29:34.988Z,8.63
2018-07-24T01:32:05.798Z,8.03
2018-07-24T01:34:36.496Z,8.20
2018-07-24T01:37:07.476Z,8.50
2018-07-24T01:39:38.201Z,8.37
2018-07-24T01:42:09.245Z,8.20
2018-07-24T01:44:39.967Z,8.20
2018-07-24T01:47:10.703Z,9.00
2018-07-24T01:49:41.427Z,8.33
2018-07-24T01:52:12.192Z,8.80
2018-07-24T01:54:42.906Z,8.83
2018-07-24T01:57:13.747Z,8.33
2018-07-24T01:59:44.423Z,8.40
2018-07-24T02:02:15.174Z,8.20
2018-07-24T02:04:46.041Z,8.93
2018-07-24T02:07:16.815Z,7.87
2018-07-24T02:09:47.585Z,8.47
2018-07-24T02:12:18.291Z,8.63
2018-07-24T02:14:49.027Z,8.97
2018-07-24T02:17:19.686Z,8.27
2018-07-24T02:19:50.448Z,9.03
2018-07-24T02:22:21.128Z,8.50
2018-07-24T02:24:52.104Z,7.67
2018-07-24T02:27:22.840Z,8.70
2018-07-24T02:30:07.875Z,9.07
2018-07-24T02:32:38.658Z,8.53
2018-07-24T02:35:09.519Z,8.67
2018-07-24T02:37:40.192Z,9.03
2018-07-24T02:40:11.016Z,9.30
2018-07-24T02:42:41.755Z,8.50
2018-07-24T02:45:12.585Z,8.90
2018-07-24T02:47:43.335Z,8.13
2018-07-24T02:50:14.202Z,8.60
2018-07-24T02:52:44.587Z,8.63
2018-07-24T02:55:15.300Z,9.47
2018-07-24T02:57:46.025Z,9.20
2018-07-24T03:00:16.770Z,8.63
2018-07-24T03:02:47.554Z,8.27
2018-07-24T03:05:18.360Z,8.60
2018-07-24T03:07:49.035Z,9.43
2018-07-24T03:10:19.749Z,9.03
2018-07-24T03:12:50.582Z,9.07
2018-07-24T03:15:21.256Z,8.80
2018-07-24T03:17:52.047Z,8.73
2018-07-24T03:20:22.776Z,8.33
2018-07-24T03:22:54.009Z,9.27
2018-07-24T03:25:24.757Z,8.50
2018-07-24T03:27:55.464Z,9.37
2018-07-24T03:30:26.212Z,8.97
2018-07-24T03:32:56.979Z,9.43
2018-07-24T03:35:27.679Z,9.20
2018-07-24T03:37:58.441Z,9.47
2018-07-24T03:40:29.206Z,8.33
2018-07-24T03:42:59.950Z,9.60
2018-07-24T03:45:30.704Z,9.90
2018-07-24T03:48:01.467Z,10.03
2018-07-24T03:50:32.295Z,9.77
2018-07-24T03:53:03.017Z,9.37
2018-07-24T03:55:33.797Z,10.13
2018-07-24T03:58:04.570Z,9.27
2018-07-24T04:00:35.295Z,9.63
2018-07-24T04:03:06.090Z,9.03
2018-07-24T04:05:36.874Z,10.27
2018-07-24T04:08:07.899Z,10.17
2018-07-24T04:10:38.664Z,9.97
2018-07-24T04:13:09.520Z,10.40
2018-07-24T04:15:40.333Z,10.03
2018-07-24T04:18:11.143Z,10.07
2018-07-24T04:20:41.917Z,9.83
2018-07-24T04:23:12.631Z,9.60
2018-07-24T04:25:43.482Z,9.97
2018-07-24T04:28:14.233Z,10.13
2018-07-24T04:30:44.997Z,9.70
2018-07-24T04:33:15.732Z,9.93
2018-07-24T04:35:46.510Z,9.30
2018-07-24T04:38:17.261Z,9.30
2018-07-24T04:40:48.146Z,9.63
2018-07-24T04:43:19.208Z,8.50
2018-07-24T04:45:49.936Z,8.53
2018-07-24T04:48:20.737Z,8.70
2018-07-24T04:50:51.447Z,8.97
2018-07-24T04:53:22.246Z,8.73
2018-07-24T04:55:53.021Z,8.40
2018-07-24T04:58:23.760Z,9.33
2018-07-24T05:00:54.740Z,9.30
2018-07-24T05:03:25.637Z,9.33
2018-07-24T05:05:56.391Z,9.20
2018-07-24T05:08:27.180Z,8.57
2018-07-24T05:10:58.877Z,9.73
2018-07-24T05:13:29.632Z,9.80
2018-07-24T05:16:00.459Z,10.87
2018-07-24T05:18:31.269Z,9.93
2018-07-24T05:21:02.109Z,9.20
2018-07-24T05:23:32.933Z,10.17
2018-07-24T05:26:03.609Z,8.73
2018-07-24T05:28:34.372Z,10.40
2018-07-24T05:31:05.243Z,11.50
2018-07-24T05:33:35.944Z,11.83
2018-07-24T05:36:06.718Z,12.40
2018-07-24T05:38:37.443Z,10.27
2018-07-24T05:41:08.290Z,10.17
2018-07-24T05:44:41.887Z,10.30
2018-07-24T05:47:12.638Z,10.03
2018-07-24T05:49:43.308Z,9.97
2018-07-24T05:52:13.951Z,11.07
2018-07-24T05:54:44.574Z,9.57
2018-07-24T05:57:15.244Z,9.67
2018-07-24T05:59:45.908Z,10.17
2018-07-24T06:02:16.599Z,10.23
2018-07-24T06:04:47.278Z,10.10
2018-07-24T06:07:18.122Z,10.03
2018-07-24T06:09:48.910Z,9.30
2018-07-24T06:12:19.728Z,9.73
2018-07-24T06:14:50.454Z,9.17
2018-07-24T06:17:21.287Z,9.10
2018-07-24T06:19:51.929Z,9.33
2018-07-24T06:22:22.680Z,8.63
2018-07-24T06:24:53.367Z,7.63
2018-07-24T06:27:24.030Z,7.67
2018-07-24T06:29:54.753Z,8.10
2018-07-24T06:32:25.492Z,8.00
2018-07-24T06:34:56.178Z,7.10
2018-07-24T06:37:26.902Z,7.43
2018-07-24T06:39:57.623Z,7.53
2018-07-24T06:42:28.307Z,7.30
2018-07-24T06:44:59.082Z,7.17
2018-07-24T06:47:29.831Z,6.50
2018-07-24T06:50:00.691Z,6.70
2018-07-24T06:52:31.391Z,6.37
2018-07-24T06:55:02.121Z,6.57
2018-07-24T06:57:32.858Z,6.60
2018-07-24T07:00:03.674Z,5.70
2018-07-24T07:02:34.316Z,5.97
2018-07-24T07:05:05.263Z,5.20
2018-07-24T07:07:35.966Z,5.60
2018-07-24T07:10:06.801Z,5.40
2018-07-24T07:12:37.692Z,5.83
2018-07-24T07:15:09.071Z,5.30
2018-07-24T07:17:39.710Z,4.83
2018-07-24T07:20:10.438Z,5.47
2018-07-24T07:22:41.146Z,4.53
2018-07-24T07:25:11.840Z,5.00
2018-07-24T07:27:42.530Z,4.80
2018-07-24T07:30:13.215Z,4.60
2018-07-24T07:32:43.912Z,4.57
2018-07-24T07:35:14.584Z,4.37
2018-07-24T07:37:45.271Z,4.47
2018-07-24T07:40:16.008Z,4.30
2018-07-24T07:42:46.706Z,4.30
2018-07-24T07:45:17.502Z,4.30
2018-07-24T07:47:48.088Z,3.90
2018-07-24T07:50:18.818Z,3.80
2018-07-24T07:52:49.554Z,4.43
2018-07-24T07:55:19.915Z,4.33
2018-07-24T07:57:50.544Z,4.53
2018-07-24T08:00:21.207Z,4.30
2018-07-24T08:02:52.203Z,4.20
2018-07-24T08:05:22.850Z,3.97
2018-07-24T08:07:53.554Z,3.90
2018-07-24T08:10:24.284Z,4.10
2018-07-24T08:12:55.038Z,4.10
2018-07-24T08:15:25.679Z,4.40
2018-07-24T08:17:56.450Z,3.97
2018-07-24T08:20:27.268Z,4.20
2018-07-24T08:22:57.952Z,3.80
2018-07-24T08:25:59.864Z,3.93
2018-07-24T08:28:30.562Z,3.70
2018-07-24T08:31:01.213Z,3.33
2018-07-24T08:33:31.939Z,3.70
2018-07-24T08:36:02.737Z,3.50
2018-07-24T08:38:33.443Z,3.10
2018-07-24T08:41:04.205Z,3.60
2018-07-24T08:43:34.913Z,3.73
2018-07-24T08:46:05.824Z,5.40
2018-07-24T08:48:36.932Z,3.77
2018-07-24T08:51:07.703Z,3.33
2018-07-24T08:53:38.605Z,4.23
2018-07-24T08:56:09.168Z,3.80
2018-07-24T08:58:39.949Z,3.70
2018-07-24T09:01:10.680Z,3.47
2018-07-24T09:03:41.484Z,3.20
2018-07-24T09:06:12.144Z,4.00
2018-07-24T09:08:42.813Z,3.80
2018-07-24T09:11:13.506Z,3.30
2018-07-24T09:13:44.271Z,3.60
2018-07-24T09:16:14.934Z,3.43
2018-07-24T09:18:45.649Z,3.70
2018-07-24T09:21:16.315Z,3.63
2018-07-24T09:23:47.200Z,3.50
2018-07-24T09:26:17.897Z,3.20
2018-07-24T09:28:48.613Z,3.57
2018-07-24T09:31:19.538Z,3.37
2018-07-24T09:33:50.239Z,3.50
2018-07-24T09:36:20.961Z,3.60
2018-07-24T09:38:51.637Z,3.40
2018-07-24T09:41:22.356Z,2.97
2018-07-24T09:43:53.141Z,3.27
2018-07-24T09:46:23.873Z,3.60
2018-07-24T09:48:54.627Z,3.07
2018-07-24T09:51:25.288Z,3.17
2018-07-24T09:53:55.955Z,3.27
2018-07-24T09:56:26.719Z,3.60
2018-07-24T09:58:57.378Z,3.10
2018-07-24T10:01:31.476Z,3.33
2018-07-24T10:04:02.862Z,3.30
2018-07-24T10:06:34.720Z,3.50
2018-07-24T10:09:08.454Z,3.00
2018-07-24T10:11:39.166Z,3.20
2018-07-24T10:14:09.869Z,3.20
2018-07-24T10:16:40.646Z,3.10
2018-07-24T10:19:11.256Z,3.20
2018-07-24T10:21:41.921Z,2.93
2018-07-24T10:24:12.637Z,3.10
2018-07-24T10:26:43.360Z,3.20
2018-07-24T10:29:14.096Z,3.37
2018-07-24T10:31:44.759Z,3.20
2018-07-24T10:34:15.464Z,3.23
2018-07-24T10:36:46.117Z,3.40
2018-07-24T10:39:16.828Z,3.10
2018-07-24T10:41:47.592Z,3.27
2018-07-24T10:44:18.282Z,3.10
2018-07-24T10:46:48.979Z,3.10
2018-07-24T10:49:19.711Z,2.90
2018-07-24T10:51:50.006Z,3.00
2018-07-24T10:54:20.514Z,3.00
2018-07-24T10:56:51.184Z,3.03
2018-07-24T10:59:21.896Z,3.00
2018-07-24T11:01:52.611Z,3.13
2018-07-24T11:04:23.267Z,3.10
2018-07-24T11:06:54.023Z,3.20
2018-07-24T11:09:24.693Z,3.23
2018-07-24T11:11:55.387Z,3.30
2018-07-24T11:14:26.064Z,2.97
2018-07-24T11:16:56.843Z,3.10
2018-07-24T11:19:27.172Z,3.27
2018-07-24T11:21:57.730Z,3.40
2018-07-24T11:24:28.011Z,3.30
2018-07-24T11:26:58.580Z,3.43
2018-07-24T11:29:29.289Z,3.10
2018-07-24T11:32:00.000Z,3.20
2018-07-24T11:34:30.723Z,3.33
2018-07-24T11:37:01.596Z,3.47
2018-07-24T11:39:32.309Z,3.40
2018-07-24T11:42:03.053Z,3.37
2018-07-24T11:44:33.824Z,3.27
2018-07-24T11:47:04.577Z,3.10
2018-07-24T11:49:35.330Z,3.10
2018-07-24T11:52:06.052Z,2.98
2018-07-24T11:54:36.829Z,3.27
2018-07-24T11:57:07.602Z,2.92
2018-07-24T11:59:38.360Z,3.22
2018-07-24T12:02:09.124Z,3.22
2018-07-24T12:04:39.855Z,3.17
2018-07-24T12:07:10.544Z,3.05
2018-07-24T12:09:41.233Z,3.65
2018-07-24T12:12:11.920Z,3.12
2018-07-24T12:14:42.759Z,3.70
2018-07-24T12:17:13.409Z,3.47
2018-07-24T12:19:44.139Z,3.33
2018-07-24T12:22:14.880Z,3.10
2018-07-24T12:24:45.572Z,3.27
2018-07-24T12:27:16.404Z,2.95
2018-07-24T12:29:47.023Z,3.05
2018-07-24T12:32:17.775Z,3.30
2018-07-24T12:34:48.484Z,3.40
2018-07-24T12:37:19.203Z,3.30
2018-07-24T12:39:49.910Z,3.72
2018-07-24T12:42:20.214Z,3.30
2018-07-24T12:44:50.828Z,3.25
2018-07-24T12:47:21.668Z,3.47
2018-07-24T12:49:52.481Z,4.00
2018-07-24T12:52:23.845Z,4.40
2018-07-24T12:54:54.495Z,3.80
2018-07-24T12:57:25.219Z,2.83
2018-07-24T12:59:55.959Z,2.98
2018-07-24T13:02:26.660Z,3.30
2018-07-24T13:04:57.465Z,3.30
2018-07-24T13:07:29.317Z,3.45
2018-07-24T13:10:00.142Z,2.98
2018-07-24T13:12:30.931Z,3.27
2018-07-24T13:15:01.702Z,3.27
2018-07-24T13:17:32.403Z,3.70
2018-07-24T13:20:03.253Z,3.55
2018-07-24T13:22:34.193Z,3.30
2018-07-24T13:25:05.181Z,3.65
2018-07-24T13:27:35.931Z,3.65
2018-07-24T13:30:06.838Z,3.45
2018-07-24T13:32:37.943Z,3.20
2018-07-24T13:35:08.716Z,3.20
2018-07-24T13:37:39.499Z,3.20
2018-07-24T13:40:10.310Z,2.90
2018-07-24T13:42:40.961Z,3.30
2018-07-24T13:45:11.661Z,3.17
2018-07-24T13:47:42.341Z,3.35
2018-07-24T13:50:12.986Z,3.20
2018-07-24T13:52:43.727Z,3.65
2018-07-24T13:55:14.574Z,3.35
2018-07-24T13:57:45.370Z,3.58
2018-07-24T14:00:16.473Z,3.30
2018-07-24T14:02:47.223Z,3.58
2018-07-24T14:05:17.952Z,3.35
2018-07-24T14:07:48.674Z,3.20
2018-07-24T14:10:19.432Z,3.50
2018-07-24T14:12:51.008Z,3.10
2018-07-24T14:15:21.691Z,3.65
2018-07-24T14:17:52.421Z,3.40
2018-07-24T14:20:23.090Z,3.25
2018-07-24T14:22:53.872Z,3.33
2018-07-24T14:25:24.724Z,3.55
2018-07-24T14:27:55.544Z,3.70
2018-07-24T14:30:26.224Z,3.90
2018-07-24T14:32:56.957Z,3.90
2018-07-24T14:35:27.776Z,4.12
2018-07-24T14:37:58.531Z,3.65
2018-07-24T14:40:29.230Z,3.90
2018-07-24T14:42:59.866Z,3.60
2018-07-24T14:45:30.531Z,3.37
2018-07-24T14:48:01.165Z,3.45
2018-07-24T14:50:31.862Z,3.60
2018-07-24T14:53:02.556Z,3.62
2018-07-24T14:55:33.200Z,3.60
2018-07-24T14:58:03.908Z,3.42
2018-07-24T15:00:34.554Z,3.58
2018-07-24T15:03:05.343Z,3.40
2018-07-24T15:05:35.976Z,3.60
2018-07-24T15:08:06.687Z,4.00
2018-07-24T15:10:37.346Z,3.70
2018-07-24T15:13:08.055Z,3.40
2018-07-24T15:15:38.749Z,3.40
2018-07-24T15:18:09.448Z,3.33
2018-07-24T15:20:40.125Z,3.20
2018-07-24T15:23:10.801Z,3.55
2018-07-24T15:25:41.751Z,3.47
2018-07-24T15:28:12.539Z,3.20
2018-07-24T15:30:43.282Z,3.20
2018-07-24T15:33:16.871Z,2.95
2018-07-24T15:35:47.586Z,2.62
2018-07-24T15:38:23.184Z,3.20
2018-07-24T15:40:53.531Z,3.02
2018-07-24T15:43:24.083Z,3.08
2018-07-24T15:45:54.749Z,3.40
2018-07-24T15:48:25.416Z,3.22
2018-07-24T15:50:56.104Z,3.05
2018-07-24T15:53:26.795Z,3.20
2018-07-24T15:55:57.545Z,3.20
2018-07-24T15:58:28.203Z,3.30
2018-07-24T16:00:58.927Z,3.05
2018-07-24T16:03:29.642Z,3.20
2018-07-24T16:06:00.336Z,3.37
2018-07-24T16:08:31.172Z,3.25
2018-07-24T16:11:01.867Z,3.55
2018-07-24T16:13:32.521Z,3.42
2018-07-24T16:16:03.205Z,3.35
2018-07-24T16:18:33.901Z,3.37
2018-07-24T16:21:04.637Z,3.20
2018-07-24T16:23:35.299Z,3.00
2018-07-24T16:26:06.041Z,3.37
2018-07-24T16:28:36.970Z,3.45
2018-07-24T16:31:07.781Z,3.00
2018-07-24T16:33:38.569Z,3.10
2018-07-24T16:36:09.252Z,3.27
2018-07-24T16:38:39.966Z,3.60
2018-07-24T16:41:10.731Z,3.60
2018-07-24T16:43:41.543Z,4.00
2018-07-24T16:46:12.181Z,3.02
2018-07-24T16:48:42.894Z,3.40
2018-07-24T16:51:13.546Z,3.50
2018-07-24T16:53:44.223Z,3.63
2018-07-24T16:56:16.098Z,3.10
2018-07-24T16:58:46.722Z,3.30
2018-07-24T17:01:17.544Z,3.77
2018-07-24T17:03:48.255Z,3.33
2018-07-24T17:06:18.908Z,3.20
2018-07-24T17:08:49.647Z,4.03
2018-07-24T17:11:20.344Z,3.60
2018-07-24T17:13:51.090Z,3.70
2018-07-24T17:16:21.827Z,3.90
2018-07-24T17:18:52.549Z,3.67
2018-07-24T17:24:08.308Z,3.50
2018-07-24T17:26:39.080Z,3.77
2018-07-24T17:29:09.759Z,3.50
2018-07-24T17:31:40.482Z,3.27
2018-07-24T17:34:11.115Z,3.90
2018-07-24T17:36:41.789Z,3.70
2018-07-24T17:39:12.539Z,3.60
2018-07-24T17:41:43.283Z,3.73
2018-07-24T17:44:13.945Z,3.47
2018-07-24T17:46:44.689Z,3.70
2018-07-24T17:49:15.342Z,3.53
2018-07-24T17:51:46.039Z,4.07
2018-07-24T17:54:16.815Z,4.30
2018-07-24T17:56:47.530Z,3.77
2018-07-24T17:59:18.283Z,3.70
2018-07-24T18:01:48.922Z,3.70
2018-07-24T18:04:19.680Z,4.03
2018-07-24T18:06:50.444Z,4.20
2018-07-24T18:09:21.211Z,4.00
2018-07-24T18:11:51.969Z,3.90
2018-07-24T18:14:22.787Z,3.90
2018-07-24T18:16:53.465Z,4.17
2018-07-24T18:19:24.177Z,3.60
2018-07-24T18:21:54.892Z,3.80
2018-07-24T18:24:25.594Z,3.73
2018-07-24T18:26:57.184Z,3.60
2018-07-24T18:29:27.899Z,3.67
2018-07-24T18:31:58.889Z,3.47
2018-07-24T18:34:36.147Z,3.60
2018-07-24T18:37:08.482Z,4.00
2018-07-24T18:39:39.357Z,3.93
2018-07-24T18:42:14.244Z,4.10
2018-07-24T18:44:44.651Z,3.90
2018-07-24T18:47:15.490Z,4.00
2018-07-24T18:49:46.453Z,3.93
2018-07-24T18:52:17.233Z,4.27
2018-07-24T18:54:48.028Z,3.90
2018-07-24T18:57:18.846Z,4.27
2018-07-24T18:59:49.650Z,4.00
2018-07-24T19:02:20.733Z,3.77
2018-07-24T19:04:51.601Z,4.03
2018-07-24T19:07:22.547Z,4.20
2018-07-24T19:09:53.403Z,4.50
2018-07-24T19:12:25.178Z,4.70
2018-07-24T19:14:55.909Z,4.03
2018-07-24T19:17:27.635Z,4.10
2018-07-24T19:19:58.481Z,4.30
2018-07-24T19:22:29.335Z,4.50
2018-07-24T19:25:00.603Z,4.17
2018-07-24T19:27:37.592Z,4.27
2018-07-24T19:30:14.167Z,4.70
2018-07-24T19:32:44.915Z,4.60
2018-07-24T19:35:15.681Z,4.27
2018-07-24T19:37:46.486Z,4.93
2018-07-24T19:40:17.404Z,4.20
2018-07-24T19:42:48.207Z,4.60
2018-07-24T19:45:18.995Z,4.43
2018-07-24T19:47:49.785Z,4.47
2018-07-24T19:50:20.556Z,4.60
2018-07-24T19:52:51.289Z,4.60
2018-07-24T19:55:22.081Z,4.40
2018-07-24T19:57:52.868Z,4.60
2018-07-24T20:00:23.700Z,4.63
2018-07-24T20:02:54.441Z,4.70
2018-07-24T20:05:25.607Z,4.47
2018-07-24T20:07:56.344Z,4.63
2018-07-24T20:10:27.463Z,4.70
2018-07-24T20:12:58.255Z,4.13
2018-07-24T20:15:28.962Z,4.57
2018-07-24T20:18:00.025Z,4.50
2018-07-24T20:20:31.076Z,5.03
2018-07-24T20:23:01.966Z,5.07
2018-07-24T20:25:32.529Z,6.67
2018-07-24T20:28:03.428Z,16.40
2018-07-24T20:30:34.053Z,17.93
2018-07-24T20:33:04.803Z,10.70
2018-07-24T20:35:35.492Z,8.30
2018-07-24T20:38:06.163Z,8.30
2018-07-24T20:40:36.875Z,8.13
2018-07-24T20:43:07.657Z,8.10
2018-07-24T20:45:38.338Z,6.77
2018-07-24T20:48:09.028Z,6.70
2018-07-24T20:50:39.730Z,6.93
2018-07-24T20:53:10.496Z,7.27
2018-07-24T20:55:41.129Z,6.53
2018-07-24T20:58:11.768Z,6.90
2018-07-24T21:00:42.417Z,6.27
2018-07-24T21:03:13.133Z,6.67
2018-07-24T21:05:43.972Z,7.33
2018-07-24T21:08:14.636Z,6.73
2018-07-24T21:10:45.333Z,6.43
2018-07-24T21:13:15.968Z,6.70
2018-07-24T21:15:46.641Z,6.33
2018-07-24T21:18:17.343Z,6.07
2018-07-24T21:20:48.100Z,5.47
2018-07-24T21:23:18.868Z,5.63
2018-07-24T21:25:49.574Z,5.50
2018-07-24T21:28:20.307Z,5.50
2018-07-24T21:30:51.032Z,5.20
2018-07-24T21:33:21.784Z,5.13
2018-07-24T21:35:52.575Z,5.30
2018-07-24T21:38:23.299Z,5.70
2018-07-24T21:40:54.028Z,5.30
2018-07-24T21:43:24.705Z,5.27
2018-07-24T21:45:55.410Z,5.47
2018-07-24T21:48:26.207Z,4.83
2018-07-24T21:50:56.998Z,5.50
2018-07-24T21:53:27.750Z,5.70
2018-07-24T21:55:58.422Z,5.10
2018-07-24T21:58:29.131Z,5.53
2018-07-24T22:01:05.039Z,5.17
2018-07-24T22:03:35.769Z,6.13
2018-07-24T22:06:06.576Z,6.60
2018-07-24T22:08:37.597Z,5.83
2018-07-24T22:11:08.381Z,6.10
2018-07-24T22:13:39.121Z,5.63
2018-07-24T22:16:09.884Z,6.20
2018-07-24T22:18:40.587Z,5.90
2018-07-24T22:21:11.343Z,5.50
2018-07-24T22:23:42.034Z,6.47
2018-07-24T22:26:12.784Z,6.47
2018-07-24T22:28:43.578Z,6.43
2018-07-24T22:31:14.288Z,6.20
2018-07-24T22:33:45.067Z,5.93
2018-07-24T22:36:15.787Z,6.50
2018-07-24T22:38:46.511Z,5.23
2018-07-24T22:41:17.274Z,6.07
2018-07-24T22:43:47.943Z,5.60
2018-07-24T22:46:18.754Z,5.80
2018-07-24T22:48:49.417Z,6.17
2018-07-24T22:51:20.167Z,5.50
2018-07-24T22:53:50.912Z,5.77
2018-07-24T22:56:21.600Z,5.87
2018-07-24T22:58:52.365Z,5.80
2018-07-24T23:01:23.122Z,5.20
2018-07-24T23:03:53.848Z,5.43
2018-07-24T23:06:24.532Z,5.10
2018-07-24T23:08:55.223Z,5.50
2018-07-24T23:11:25.940Z,5.60
2018-07-24T23:13:56.584Z,5.67
2018-07-24T23:16:27.335Z,5.27
2018-07-24T23:18:58.044Z,5.33
2018-07-24T23:21:28.749Z,5.53
2018-07-24T23:23:59.508Z,5.27
2018-07-24T23:26:30.198Z,5.47
2018-07-24T23:29:00.880Z,5.37
2018-07-24T23:31:31.609Z,5.30
2018-07-24T23:34:02.303Z,5.63
2018-07-24T23:36:33.035Z,5.20
2018-07-24T23:39:06.479Z,5.20
2018-07-24T23:41:37.201Z,5.60
2018-07-24T23:44:08.272Z,5.90
2018-07-24T23:46:39.521Z,6.17
2018-07-24T23:49:10.247Z,6.23
2018-07-24T23:51:40.888Z,5.67
2018-07-24T23:54:11.594Z,5.73
2018-07-24T23:56:42.244Z,5.20
2018-07-24T23:59:12.927Z,5.90
